sensor_id;sensor_type;location;lat;lon;timestamp;P1;durP1;ratioP1;P2;durP2;ratioP2
15192;SDS011;7697;51.630;7.484;2024-02-15T00:02:44;5.70;;;5.10;;
15192;SDS011;7697;51.630;7.484;2024-02-15T00:07:46;6.93;;;5.17;;
15192;SDS011;7697;51.630;7.484;2024-02-15T00:12:50;6.82;;;5.20;;
15192;SDS011;7697;51.630;7.484;2024-02-15T00:17:52;6.07;;;5.32;;
15192;SDS011;7697;51.630;7.484;2024-02-15T00:22:54;7.63;;;5.38;;
15192;SDS011;7697;51.630;7.484;2024-02-15T00:27:58;8.43;;;6.35;;
15192;SDS011;7697;51.630;7.484;2024-02-15T00:33:02;9.30;;;6.15;;
15192;SDS011;7697;51.630;7.484;2024-02-15T00:38:04;6.93;;;6.22;;
15192;SDS011;7697;51.630;7.484;2024-02-15T00:43:08;12.50;;;6.78;;
15192;SDS011;7697;51.630;7.484;2024-02-15T00:48:10;7.80;;;6.13;;
15192;SDS011;7697;51.630;7.484;2024-02-15T00:53:12;13.35;;;7.90;;
15192;SDS011;7697;51.630;7.484;2024-02-15T00:58:18;8.32;;;7.50;;
15192;SDS011;7697;51.630;7.484;2024-02-15T01:03:21;10.55;;;7.93;;
15192;SDS011;7697;51.630;7.484;2024-02-15T01:08:24;8.75;;;6.90;;
15192;SDS011;7697;51.630;7.484;2024-02-15T01:13:27;7.82;;;7.03;;
15192;SDS011;7697;51.630;7.484;2024-02-15T01:18:29;11.45;;;7.78;;
15192;SDS011;7697;51.630;7.484;2024-02-15T01:23:31;13.55;;;8.20;;
15192;SDS011;7697;51.630;7.484;2024-02-15T01:28:36;13.07;;;9.13;;
15192;SDS011;7697;51.630;7.484;2024-02-15T01:33:38;8.30;;;7.50;;
15192;SDS011;7697;51.630;7.484;2024-02-15T01:38:40;9.70;;;7.97;;
15192;SDS011;7697;51.630;7.484;2024-02-15T01:43:44;10.93;;;9.05;;
15192;SDS011;7697;51.630;7.484;2024-02-15T01:48:48;10.15;;;8.32;;
15192;SDS011;7697;51.630;7.484;2024-02-15T01:53:50;10.25;;;8.70;;
15192;SDS011;7697;51.630;7.484;2024-02-15T01:58:56;11.68;;;8.93;;
15192;SDS011;7697;51.630;7.484;2024-02-15T02:03:58;11.05;;;8.45;;
15192;SDS011;7697;51.630;7.484;2024-02-15T02:09:01;10.52;;;8.15;;
15192;SDS011;7697;51.630;7.484;2024-02-15T02:14:04;9.40;;;8.40;;
15192;SDS011;7697;51.630;7.484;2024-02-15T02:19:06;9.63;;;8.63;;
15192;SDS011;7697;51.630;7.484;2024-02-15T02:24:10;12.50;;;8.95;;
15192;SDS011;7697;51.630;7.484;2024-02-15T02:29:16;10.70;;;8.43;;
15192;SDS011;7697;51.630;7.484;2024-02-15T02:34:18;13.82;;;8.95;;
15192;SDS011;7697;51.630;7.484;2024-02-15T02:39:20;15.57;;;9.57;;
15192;SDS011;7697;51.630;7.484;2024-02-15T02:44:24;11.70;;;7.50;;
15192;SDS011;7697;51.630;7.484;2024-02-15T02:49:27;15.65;;;8.48;;
15192;SDS011;7697;51.630;7.484;2024-02-15T02:54:29;9.10;;;6.63;;
15192;SDS011;7697;51.630;7.484;2024-02-15T02:59:32;6.85;;;6.00;;
15192;SDS011;7697;51.630;7.484;2024-02-15T03:04:34;9.75;;;6.97;;
15192;SDS011;7697;51.630;7.484;2024-02-15T03:09:38;13.38;;;8.57;;
15192;SDS011;7697;51.630;7.484;2024-02-15T03:14:43;11.70;;;7.97;;
15192;SDS011;7697;51.630;7.484;2024-02-15T03:19:45;9.70;;;7.85;;
15192;SDS011;7697;51.630;7.484;2024-02-15T03:24:49;11.63;;;8.45;;
15192;SDS011;7697;51.630;7.484;2024-02-15T03:29:52;11.30;;;7.60;;
15192;SDS011;7697;51.630;7.484;2024-02-15T03:34:57;9.82;;;7.20;;
15192;SDS011;7697;51.630;7.484;2024-02-15T03:40:01;9.48;;;7.30;;
15192;SDS011;7697;51.630;7.484;2024-02-15T03:45:06;8.23;;;6.63;;
15192;SDS011;7697;51.630;7.484;2024-02-15T03:50:11;7.60;;;6.32;;
15192;SDS011;7697;51.630;7.484;2024-02-15T03:55:14;12.35;;;7.22;;
15192;SDS011;7697;51.630;7.484;2024-02-15T04:00:18;8.65;;;6.53;;
15192;SDS011;7697;51.630;7.484;2024-02-15T04:05:20;8.73;;;6.07;;
15192;SDS011;7697;51.630;7.484;2024-02-15T04:10:23;9.60;;;5.95;;
15192;SDS011;7697;51.630;7.484;2024-02-15T04:15:27;7.70;;;5.05;;
15192;SDS011;7697;51.630;7.484;2024-02-15T04:20:29;8.05;;;5.05;;
15192;SDS011;7697;51.630;7.484;2024-02-15T04:25:32;10.05;;;5.72;;
15192;SDS011;7697;51.630;7.484;2024-02-15T04:30:36;8.25;;;5.68;;
15192;SDS011;7697;51.630;7.484;2024-02-15T04:35:40;8.63;;;5.45;;
15192;SDS011;7697;51.630;7.484;2024-02-15T04:40:43;8.02;;;5.50;;
15192;SDS011;7697;51.630;7.484;2024-02-15T04:45:47;7.97;;;5.88;;
15192;SDS011;7697;51.630;7.484;2024-02-15T04:50:51;6.88;;;5.95;;
15192;SDS011;7697;51.630;7.484;2024-02-15T04:55:55;7.10;;;5.65;;
15192;SDS011;7697;51.630;7.484;2024-02-15T05:00:58;6.07;;;5.47;;
15192;SDS011;7697;51.630;7.484;2024-02-15T05:06:01;10.55;;;6.82;;
15192;SDS011;7697;51.630;7.484;2024-02-15T05:11:05;9.70;;;6.10;;
15192;SDS011;7697;51.630;7.484;2024-02-15T05:16:14;8.90;;;5.70;;
15192;SDS011;7697;51.630;7.484;2024-02-15T05:21:17;7.60;;;5.53;;
15192;SDS011;7697;51.630;7.484;2024-02-15T05:26:20;9.30;;;5.30;;
15192;SDS011;7697;51.630;7.484;2024-02-15T05:31:24;9.18;;;5.03;;
15192;SDS011;7697;51.630;7.484;2024-02-15T05:36:27;7.65;;;4.32;;
15192;SDS011;7697;51.630;7.484;2024-02-15T05:41:31;6.47;;;4.43;;
15192;SDS011;7697;51.630;7.484;2024-02-15T05:46:40;6.70;;;4.30;;
15192;SDS011;7697;51.630;7.484;2024-02-15T05:51:43;5.57;;;3.53;;
15192;SDS011;7697;51.630;7.484;2024-02-15T05:56:47;6.20;;;3.38;;
15192;SDS011;7697;51.630;7.484;2024-02-15T06:01:53;7.45;;;3.65;;
15192;SDS011;7697;51.630;7.484;2024-02-15T06:06:56;4.68;;;2.88;;
15192;SDS011;7697;51.630;7.484;2024-02-15T06:12:00;4.80;;;2.60;;
15192;SDS011;7697;51.630;7.484;2024-02-15T06:17:05;5.20;;;2.50;;
15192;SDS011;7697;51.630;7.484;2024-02-15T06:22:09;4.90;;;2.50;;
15192;SDS011;7697;51.630;7.484;2024-02-15T06:27:12;3.40;;;2.10;;
15192;SDS011;7697;51.630;7.484;2024-02-15T06:32:17;4.68;;;2.20;;
15192;SDS011;7697;51.630;7.484;2024-02-15T06:37:37;4.28;;;2.30;;
15192;SDS011;7697;51.630;7.484;2024-02-15T06:42:57;5.35;;;2.40;;
15192;SDS011;7697;51.630;7.484;2024-02-15T06:48:06;7.22;;;2.38;;
15192;SDS011;7697;51.630;7.484;2024-02-15T07:20:02;5.18;;;2.50;;
15192;SDS011;7697;51.630;7.484;2024-02-15T07:25:12;3.88;;;2.10;;
15192;SDS011;7697;51.630;7.484;2024-02-15T07:30:16;4.10;;;2.10;;
15192;SDS011;7697;51.630;7.484;2024-02-15T07:35:20;2.92;;;2.20;;
15192;SDS011;7697;51.630;7.484;2024-02-15T07:40:25;4.35;;;2.15;;
15192;SDS011;7697;51.630;7.484;2024-02-15T07:45:29;5.95;;;2.38;;
15192;SDS011;7697;51.630;7.484;2024-02-15T07:50:40;4.22;;;2.47;;
15192;SDS011;7697;51.630;7.484;2024-02-15T07:55:45;7.03;;;2.80;;
15192;SDS011;7697;51.630;7.484;2024-02-15T08:00:48;6.38;;;2.70;;
15192;SDS011;7697;51.630;7.484;2024-02-15T08:05:52;4.18;;;2.40;;
15192;SDS011;7697;51.630;7.484;2024-02-15T08:10:55;7.40;;;2.53;;
15192;SDS011;7697;51.630;7.484;2024-02-15T08:16:02;3.88;;;2.30;;
15192;SDS011;7697;51.630;7.484;2024-02-15T08:21:16;4.15;;;2.10;;
15192;SDS011;7697;51.630;7.484;2024-02-15T08:26:29;4.05;;;2.22;;
15192;SDS011;7697;51.630;7.484;2024-02-15T08:31:41;4.72;;;2.40;;
15192;SDS011;7697;51.630;7.484;2024-02-15T08:42:37;4.68;;;1.98;;
15192;SDS011;7697;51.630;7.484;2024-02-15T08:47:43;5.10;;;2.38;;
15192;SDS011;7697;51.630;7.484;2024-02-15T08:52:50;5.95;;;2.30;;
15192;SDS011;7697;51.630;7.484;2024-02-15T08:58:10;3.15;;;1.92;;
15192;SDS011;7697;51.630;7.484;2024-02-15T09:03:13;4.45;;;2.28;;
15192;SDS011;7697;51.630;7.484;2024-02-15T09:08:24;2.97;;;1.98;;
15192;SDS011;7697;51.630;7.484;2024-02-15T09:13:34;5.28;;;2.53;;
15192;SDS011;7697;51.630;7.484;2024-02-15T09:18:40;3.17;;;1.75;;
15192;SDS011;7697;51.630;7.484;2024-02-15T09:23:45;4.20;;;2.00;;
15192;SDS011;7697;51.630;7.484;2024-02-15T09:28:50;6.78;;;2.10;;
15192;SDS011;7697;51.630;7.484;2024-02-15T09:33:53;4.45;;;2.05;;
15192;SDS011;7697;51.630;7.484;2024-02-15T09:38:55;4.95;;;2.20;;
15192;SDS011;7697;51.630;7.484;2024-02-15T09:44:00;3.63;;;2.10;;
15192;SDS011;7697;51.630;7.484;2024-02-15T09:49:03;3.90;;;2.10;;
15192;SDS011;7697;51.630;7.484;2024-02-15T09:54:07;4.07;;;2.00;;
15192;SDS011;7697;51.630;7.484;2024-02-15T09:59:14;2.05;;;1.63;;
15192;SDS011;7697;51.630;7.484;2024-02-15T10:04:18;3.10;;;2.10;;
15192;SDS011;7697;51.630;7.484;2024-02-15T10:09:25;3.15;;;2.13;;
15192;SDS011;7697;51.630;7.484;2024-02-15T10:14:32;3.50;;;1.65;;
15192;SDS011;7697;51.630;7.484;2024-02-15T10:19:36;4.35;;;1.90;;
15192;SDS011;7697;51.630;7.484;2024-02-15T10:24:44;7.18;;;2.50;;
15192;SDS011;7697;51.630;7.484;2024-02-15T10:29:56;4.03;;;1.88;;
15192;SDS011;7697;51.630;7.484;2024-02-15T10:35:32;5.13;;;1.90;;
15192;SDS011;7697;51.630;7.484;2024-02-15T10:40:38;3.75;;;1.90;;
15192;SDS011;7697;51.630;7.484;2024-02-15T10:45:53;3.33;;;1.80;;
15192;SDS011;7697;51.630;7.484;2024-02-15T10:50:59;3.88;;;1.80;;
15192;SDS011;7697;51.630;7.484;2024-02-15T10:56:07;3.40;;;1.83;;
15192;SDS011;7697;51.630;7.484;2024-02-15T11:01:23;3.42;;;2.00;;
15192;SDS011;7697;51.630;7.484;2024-02-15T11:06:31;3.63;;;1.90;;
15192;SDS011;7697;51.630;7.484;2024-02-15T11:11:39;2.95;;;1.98;;
15192;SDS011;7697;51.630;7.484;2024-02-15T11:16:44;4.80;;;2.10;;
15192;SDS011;7697;51.630;7.484;2024-02-15T11:21:53;3.90;;;2.00;;
15192;SDS011;7697;51.630;7.484;2024-02-15T11:26:57;2.20;;;1.50;;
15192;SDS011;7697;51.630;7.484;2024-02-15T11:32:10;3.95;;;2.03;;
15192;SDS011;7697;51.630;7.484;2024-02-15T11:42:54;3.28;;;1.60;;
15192;SDS011;7697;51.630;7.484;2024-02-15T11:48:03;4.85;;;1.85;;
15192;SDS011;7697;51.630;7.484;2024-02-15T11:53:11;4.53;;;1.80;;
15192;SDS011;7697;51.630;7.484;2024-02-15T11:58:16;5.40;;;3.85;;
15192;SDS011;7697;51.630;7.484;2024-02-15T12:03:32;5.35;;;3.47;;
15192;SDS011;7697;51.630;7.484;2024-02-15T12:08:52;5.10;;;2.47;;
15192;SDS011;7697;51.630;7.484;2024-02-15T12:14:12;3.63;;;1.35;;
15192;SDS011;7697;51.630;7.484;2024-02-15T12:19:35;2.92;;;1.70;;
15192;SDS011;7697;51.630;7.484;2024-02-15T12:29:54;2.53;;;1.70;;
15192;SDS011;7697;51.630;7.484;2024-02-15T13:50:12;2.13;;;1.30;;
15192;SDS011;7697;51.630;7.484;2024-02-15T13:55:26;4.55;;;1.42;;
15192;SDS011;7697;51.630;7.484;2024-02-15T14:00:36;3.47;;;1.50;;
15192;SDS011;7697;51.630;7.484;2024-02-15T14:05:51;3.08;;;1.60;;
15192;SDS011;7697;51.630;7.484;2024-02-15T16:00:35;4.13;;;2.10;;
15192;SDS011;7697;51.630;7.484;2024-02-15T16:21:13;3.75;;;1.60;;
15192;SDS011;7697;51.630;7.484;2024-02-15T16:26:16;3.28;;;1.63;;
15192;SDS011;7697;51.630;7.484;2024-02-15T16:31:19;1.85;;;1.30;;
15192;SDS011;7697;51.630;7.484;2024-02-15T16:36:26;2.42;;;1.40;;
15192;SDS011;7697;51.630;7.484;2024-02-15T16:41:28;3.65;;;1.80;;
15192;SDS011;7697;51.630;7.484;2024-02-15T16:46:30;3.47;;;1.60;;
15192;SDS011;7697;51.630;7.484;2024-02-15T16:51:52;3.25;;;1.88;;
15192;SDS011;7697;51.630;7.484;2024-02-15T16:56:57;2.25;;;1.60;;
15192;SDS011;7697;51.630;7.484;2024-02-15T17:01:59;1.80;;;1.45;;
15192;SDS011;7697;51.630;7.484;2024-02-15T17:07:03;2.35;;;1.67;;
15192;SDS011;7697;51.630;7.484;2024-02-15T17:12:05;2.47;;;1.85;;
15192;SDS011;7697;51.630;7.484;2024-02-15T17:17:07;3.72;;;2.28;;
15192;SDS011;7697;51.630;7.484;2024-02-15T17:22:10;2.40;;;1.67;;
15192;SDS011;7697;51.630;7.484;2024-02-15T17:27:13;2.58;;;1.45;;
15192;SDS011;7697;51.630;7.484;2024-02-15T17:32:17;3.08;;;1.80;;
15192;SDS011;7697;51.630;7.484;2024-02-15T17:37:24;2.22;;;1.63;;
15192;SDS011;7697;51.630;7.484;2024-02-15T17:42:29;2.55;;;1.70;;
15192;SDS011;7697;51.630;7.484;2024-02-15T17:47:50;3.83;;;1.80;;
15192;SDS011;7697;51.630;7.484;2024-02-15T17:59:10;2.55;;;2.00;;
15192;SDS011;7697;51.630;7.484;2024-02-15T18:04:28;3.58;;;2.17;;
15192;SDS011;7697;51.630;7.484;2024-02-15T18:09:38;4.45;;;3.10;;
15192;SDS011;7697;51.630;7.484;2024-02-15T21:58:04;4.18;;;1.73;;
15192;SDS011;7697;51.630;7.484;2024-02-15T22:21:34;3.30;;;1.70;;
15192;SDS011;7697;51.630;7.484;2024-02-15T22:27:39;3.67;;;1.73;;
15192;SDS011;7697;51.630;7.484;2024-02-15T22:33:28;3.83;;;1.80;;
15192;SDS011;7697;51.630;7.484;2024-02-15T22:38:45;2.75;;;1.60;;
15192;SDS011;7697;51.630;7.484;2024-02-15T22:43:50;3.30;;;1.90;;
15192;SDS011;7697;51.630;7.484;2024-02-15T22:54:24;2.30;;;1.60;;
15192;SDS011;7697;51.630;7.484;2024-02-15T22:59:32;1.50;;;1.30;;
15192;SDS011;7697;51.630;7.484;2024-02-15T23:04:40;3.65;;;1.83;;
15192;SDS011;7697;51.630;7.484;2024-02-15T23:09:44;3.72;;;1.33;;
15192;SDS011;7697;51.630;7.484;2024-02-15T23:14:48;1.98;;;1.33;;
15192;SDS011;7697;51.630;7.484;2024-02-15T23:19:55;2.53;;;1.42;;
15192;SDS011;7697;51.630;7.484;2024-02-15T23:24:59;4.88;;;1.83;;
15192;SDS011;7697;51.630;7.484;2024-02-15T23:30:06;4.68;;;1.60;;
15192;SDS011;7697;51.630;7.484;2024-02-15T23:35:13;1.73;;;1.20;;
15192;SDS011;7697;51.630;7.484;2024-02-15T23:40:32;3.47;;;2.00;;
15192;SDS011;7697;51.630;7.484;2024-02-15T23:46:01;3.13;;;1.45;;
15192;SDS011;7697;51.630;7.484;2024-02-15T23:51:07;3.65;;;1.60;;
15192;SDS011;7697;51.630;7.484;2024-02-15T23:56:14;2.65;;;1.30;;
